Time;durP1;ratioP1;P1;durP2;ratioP2;P2;SDS_P1;SDS_P2;PMS_P1;PMS_P2;Temp;Humidity;BMP_temperature;BMP_pressure;BME280_temperature;BME280_humidity;BME280_pressure;Samples;Min_cycle;Max_cycle;Signal;HPM_P1;HPM_P2
2023/10/15 00:03:15;;;;;;;9.10;5.35;;;;;;;20.14;70.64;100635.13;10172466;28;96821;-76
2023/10/15 00:08:20;;;;;;;10.65;5.60;;;;;;;20.06;70.71;100618.81;10174812;28;98980;-76
2023/10/15 00:13:23;;;;;;;7.57;5.22;;;;;;;20.11;70.61;100622.00;10172796;28;96971;-76
2023/10/15 00:18:28;;;;;;;;;;;;;;;20.01;72.51;100634.28;10173531;28;99127;-77
2023/10/15 00:23:33;;;;;;;8.00;4.88;;;;;;;19.98;71.31;100628.31;10173151;28;97060;-77
2023/10/15 00:28:37;;;;;;;6.85;5.05;;;;;;;20.07;70.50;100633.00;10173348;28;97449;-76
2023/10/15 00:33:42;;;;;;;;;;;;;;;19.95;72.57;100617.84;10165002;28;97818;-77
2023/10/15 00:38:47;;;;;;;9.00;5.03;;;;;;;19.87;71.48;100617.56;10171307;28;97693;-77
2023/10/15 00:43:54;;;;;;;7.60;5.10;;;;;;;19.83;71.45;100619.59;10170180;28;98973;-76
2023/10/15 00:49:02;;;;;;;10.50;5.35;;;;;;;19.71;72.23;100612.47;10170497;28;98835;-76
2023/10/15 00:54:11;;;;;;;8.38;4.57;;;;;;;19.81;71.45;100618.00;10173312;28;97074;-76
2023/10/15 00:59:18;;;;;;;8.10;5.38;;;;;;;19.83;71.33;100619.59;10170293;28;96975;-76
2023/10/15 01:04:24;;;;;;;8.35;4.97;;;;;;;19.80;71.70;100609.16;10204474;22;99089;-76
2023/10/15 01:09:30;;;;;;;8.88;5.50;;;;;;;19.98;70.58;100614.94;10219589;28;97000;-77
2023/10/15 01:14:33;;;;;;;9.23;5.72;;;;;;;20.03;70.31;100605.63;10217206;28;96987;-77
2023/10/15 01:19:37;;;;;;;6.68;4.78;;;;;;;19.94;70.42;100603.63;10215913;28;97332;-76
2023/10/15 01:24:41;;;;;;;8.63;5.43;;;;;;;19.64;72.17;100599.66;10218906;28;96842;-76
2023/10/15 01:29:47;;;;;;;9.48;4.90;;;;;;;19.86;71.02;100584.66;10218062;28;96841;-75
2023/10/15 01:34:52;;;;;;;8.77;4.97;;;;;;;19.72;71.29;100589.28;10218259;28;96973;-76
2023/10/15 01:40:01;;;;;;;8.38;5.00;;;;;;;19.72;70.97;100591.97;10219924;28;96731;-76
2023/10/15 01:45:16;;;;;;;6.93;4.78;;;;;;;19.83;70.85;100587.53;10211564;28;96799;-76
2023/10/15 01:50:24;;;;;;;7.57;4.72;;;;;;;19.82;70.75;100583.16;10209533;28;97264;-76
2023/10/15 01:55:29;;;;;;;9.32;4.75;;;;;;;19.79;70.60;100582.50;10218331;28;97046;-76
2023/10/15 02:00:43;;;;;;;6.63;4.38;;;;;;;19.78;70.57;100575.47;10214634;28;96868;-76
2023/10/15 02:05:47;;;;;;;10.38;5.00;;;;;;;19.60;71.96;100563.44;10209559;28;96716;-76
2023/10/15 02:10:51;;;;;;;9.35;4.40;;;;;;;19.74;71.02;100560.63;10215934;28;97304;-76
2023/10/15 02:16:08;;;;;;;7.30;3.95;;;;;;;19.64;70.96;100556.94;10192039;28;96824;-75
2023/10/15 02:21:16;;;;;;;7.18;4.20;;;;;;;19.67;70.94;100552.22;10199587;28;96850;-76
2023/10/15 02:26:23;;;;;;;8.48;4.13;;;;;;;19.70;71.22;100540.47;10217827;28;96810;-76
2023/10/15 02:31:30;;;;;;;8.15;4.22;;;;;;;19.70;70.72;100535.16;10216847;28;96796;-76
2023/10/15 02:36:33;;;;;;;7.97;4.38;;;;;;;19.70;71.07;100527.13;10217748;28;96764;-76
2023/10/15 02:41:41;;;;;;;9.75;4.90;;;;;;;19.67;71.14;100516.66;10217745;28;96905;-76
2023/10/15 02:46:50;;;;;;;8.02;4.60;;;;;;;19.72;70.82;100518.03;10216512;28;96717;-76
2023/10/15 02:51:53;;;;;;;7.60;4.95;;;;;;;19.72;71.07;100506.50;10217327;28;97639;-76
2023/10/15 02:56:59;;;;;;;7.47;4.28;;;;;;;19.75;70.58;100501.78;10215104;28;98793;-76
2023/10/15 03:02:07;;;;;;;8.07;4.50;;;;;;;19.64;70.97;100501.72;10216956;28;96933;-76
2023/10/15 03:07:26;;;;;;;5.55;3.85;;;;;;;19.58;71.36;100496.81;10213080;28;96743;-76
2023/10/15 03:12:33;;;;;;;7.32;4.22;;;;;;;19.65;71.23;100505.25;10203881;28;97158;-76
2023/10/15 03:17:40;;;;;;;5.25;3.95;;;;;;;19.71;70.66;100505.66;10211853;28;96994;-78
2023/10/15 03:22:45;;;;;;;6.47;4.35;;;;;;;19.77;70.55;100505.19;10214816;28;96923;-76
2023/10/15 03:27:48;;;;;;;6.67;4.10;;;;;;;19.74;70.43;100499.22;10215311;28;98792;-75
2023/10/15 03:32:53;;;;;;;6.70;3.95;;;;;;;19.81;70.12;100497.81;10216698;28;96907;-75
2023/10/15 03:38:00;;;;;;;7.07;4.15;;;;;;;19.78;70.40;100496.22;10215897;28;96742;-76
2023/10/15 03:43:06;;;;;;;7.75;4.30;;;;;;;19.80;70.21;100496.13;10215405;28;97160;-76
2023/10/15 03:48:14;;;;;;;6.78;4.13;;;;;;;19.70;70.42;100490.56;10212690;28;96752;-77
2023/10/15 03:53:20;;;;;;;6.63;3.90;;;;;;;19.72;70.19;100490.50;10214255;28;96605;-77
2023/10/15 03:58:24;;;;;;;6.78;4.22;;;;;;;19.77;69.81;100494.50;10216038;28;96759;-77
2023/10/15 04:03:29;;;;;;;5.80;3.78;;;;;;;19.73;70.22;100493.06;10214809;28;98894;-76
2023/10/15 04:08:32;;;;;;;6.90;4.05;;;;;;;19.70;70.25;100489.75;10215379;28;96803;-76
2023/10/15 04:13:36;;;;;;;6.05;4.07;;;;;;;19.70;70.31;100482.56;10215300;28;96987;-77
2023/10/15 04:18:40;;;;;;;5.47;3.33;;;;;;;19.74;70.09;100476.03;10213254;28;97117;-76
2023/10/15 04:23:49;;;;;;;5.43;3.83;;;;;;;19.80;69.96;100485.44;10215645;28;96740;-75
2023/10/15 04:28:53;;;;;;;6.00;3.80;;;;;;;19.77;69.94;100483.00;10213984;28;97075;-75
2023/10/15 04:33:58;;;;;;;6.30;3.60;;;;;;;19.73;70.02;100482.38;10212674;28;96845;-77
2023/10/15 04:39:12;;;;;;;4.70;3.60;;;;;;;19.85;69.52;100483.28;10214723;28;96906;-77
2023/10/15 04:44:24;;;;;;;5.68;3.65;;;;;;;19.92;69.39;100482.72;10221719;28;96817;-76
2023/10/15 04:49:31;;;;;;;6.47;3.88;;;;;;;19.94;69.43;100482.59;10221236;28;96637;-76
2023/10/15 04:54:37;;;;;;;5.68;3.67;;;;;;;19.99;69.21;100480.44;10221665;28;96923;-76
2023/10/15 04:59:41;;;;;;;5.85;3.95;;;;;;;20.08;69.14;100485.09;10221051;28;97798;-76
2023/10/15 05:04:47;;;;;;;4.25;2.97;;;;;;;19.92;69.62;100479.19;10219328;28;96897;-76
2023/10/15 05:09:51;;;;;;;6.25;3.92;;;;;;;19.92;69.99;100477.38;10221243;28;97073;-77
2023/10/15 05:14:54;;;;;;;5.60;3.85;;;;;;;19.89;70.20;100472.22;10219762;28;96967;-77
2023/10/15 05:19:58;;;;;;;7.57;3.72;;;;;;;20.07;69.96;100456.66;10219930;28;96725;-76
2023/10/15 05:25:04;;;;;;;5.47;3.67;;;;;;;20.16;69.68;100455.97;10232074;28;97853;-76
2023/10/15 05:30:09;;;;;;;6.25;3.72;;;;;;;20.15;69.74;100440.91;10216986;28;96768;-76
2023/10/15 05:35:17;;;;;;;5.68;4.13;;;;;;;20.11;69.79;100439.44;10218474;28;97846;-77
2023/10/15 05:40:21;;;;;;;6.78;3.95;;;;;;;19.77;71.14;100443.78;10218910;28;97488;-76
2023/10/15 05:45:24;;;;;;;5.60;4.03;;;;;;;19.78;71.12;100441.97;10219779;28;97095;-77
2023/10/15 05:50:29;;;;;;;7.57;3.95;;;;;;;19.79;71.06;100455.19;10216462;28;97458;-76
2023/10/15 05:55:33;;;;;;;6.82;4.07;;;;;;;19.67;71.32;100456.09;10218656;28;96945;-76
2023/10/15 06:00:39;;;;;;;7.85;4.03;;;;;;;19.71;71.21;100446.91;10219680;28;96746;-76
2023/10/15 06:05:44;;;;;;;6.63;3.88;;;;;;;19.66;71.35;100438.38;10218583;28;97113;-76
2023/10/15 06:10:47;;;;;;;6.80;3.78;;;;;;;19.61;71.50;100440.56;10217480;28;96764;-76
2023/10/15 06:15:51;;;;;;;6.47;3.95;;;;;;;19.61;71.51;100437.88;10211388;28;97110;-76
2023/10/15 06:20:57;;;;;;;5.63;4.00;;;;;;;19.72;71.44;100437.91;10216600;28;96963;-76
2023/10/15 06:26:00;;;;;;;6.07;3.92;;;;;;;19.71;70.96;100433.56;10216798;28;96770;-76
2023/10/15 06:31:04;;;;;;;5.65;3.88;;;;;;;19.62;70.95;100442.25;10216036;28;97331;-76
2023/10/15 06:36:09;;;;;;;;;;;;;;;19.50;72.02;100432.47;10208140;28;97656;-76
2023/10/15 06:41:15;;;;;;;5.65;3.55;;;;;;;19.53;71.54;100418.06;10217882;28;96732;-76
2023/10/15 06:46:18;;;;;;;5.38;3.70;;;;;;;19.54;71.38;100417.06;10217402;28;97100;-76
2023/10/15 06:51:24;;;;;;;5.25;3.30;;;;;;;19.50;71.46;100405.78;10216111;28;97440;-76
2023/10/15 06:56:28;;;;;;;6.15;3.90;;;;;;;19.42;71.74;100405.50;10218268;28;96787;-76
2023/10/15 07:01:31;;;;;;;7.53;3.97;;;;;;;19.37;71.88;100399.63;10214430;28;97558;-76
2023/10/15 07:06:36;;;;;;;4.50;3.42;;;;;;;19.44;71.74;100395.53;10216183;28;99084;-76
2023/10/15 07:11:39;;;;;;;4.95;3.63;;;;;;;19.40;71.72;100390.50;10215666;28;96759;-76
2023/10/15 07:16:42;;;;;;;5.55;3.40;;;;;;;19.47;71.71;100403.34;10216563;28;97009;-77
2023/10/15 07:21:47;;;;;;;6.35;4.00;;;;;;;19.43;71.82;100401.84;10216758;28;96794;-77
2023/10/15 07:26:52;;;;;;;4.28;3.20;;;;;;;19.49;71.52;100408.56;10215106;28;96918;-77
2023/10/15 07:31:55;;;;;;;5.43;3.88;;;;;;;19.53;71.44;100410.88;10212762;28;99339;-77
2023/10/15 07:37:00;;;;;;;6.30;3.60;;;;;;;19.63;71.12;100414.56;10213129;28;99132;-76
2023/10/15 07:42:07;;;;;;;6.13;4.35;;;;;;;19.63;70.85;100411.06;10210740;28;96997;-79
2023/10/15 07:47:11;;;;;;;5.22;3.63;;;;;;;19.69;70.69;100415.94;10212785;28;99065;-81
2023/10/15 07:52:16;;;;;;;5.70;3.33;;;;;;;19.71;70.56;100420.22;10207748;28;98054;-79
2023/10/15 07:57:20;;;;;;;5.47;3.17;;;;;;;19.76;70.35;100406.50;10208251;28;97411;-80
2023/10/15 08:02:23;;;;;;;5.80;3.00;;;;;;;19.83;70.12;100413.09;10209820;28;96959;-77
2023/10/15 08:07:28;;;;;;;5.37;3.00;;;;;;;19.90;69.75;100419.69;10213217;28;97770;-79
2023/10/15 08:12:32;;;;;;;4.32;2.95;;;;;;;19.95;69.64;100418.38;10203614;28;97004;-89
2023/10/15 08:17:35;;;;;;;5.87;3.30;;;;;;;20.06;69.33;100414.88;10211440;28;96827;-86
2023/10/15 08:22:40;;;;;;;3.95;3.20;;;;;;;20.00;69.63;100420.69;10213001;28;97181;-86
2023/10/15 08:27:44;;;;;;;4.65;3.10;;;;;;;19.96;69.56;100419.22;10208567;28;96830;-86
2023/10/15 08:32:48;;;;;;;6.57;3.25;;;;;;;19.96;69.65;100417.38;10211623;28;98835;-87
2023/10/15 08:37:52;;;;;;;5.20;3.63;;;;;;;20.06;69.30;100417.56;10212929;28;96838;-87
2023/10/15 08:43:11;;;;;;;4.63;3.30;;;;;;;20.02;69.66;100414.25;10213945;28;96804;-86
2023/10/15 08:48:17;;;;;;;5.75;3.53;;;;;;;20.02;69.69;100426.75;10212125;28;97773;-87
2023/10/15 08:53:24;;;;;;;7.20;3.95;;;;;;;19.95;70.24;100430.88;10192500;28;96755;-88
2023/10/15 08:58:28;;;;;;;4.30;3.17;;;;;;;19.88;70.68;100425.13;10213402;28;96771;-86
2023/10/15 09:03:32;;;;;;;5.40;3.75;;;;;;;19.85;71.65;100427.19;10208106;28;97534;-86
2023/10/15 09:08:41;;;;;;;6.03;4.13;;;;;;;19.68;72.43;100423.13;10210843;28;100234;-86
2023/10/15 09:13:51;;;;;;;6.00;3.60;;;;;;;19.59;73.18;100420.25;10205552;28;97232;-86
2023/10/15 09:18:58;;;;;;;6.45;3.60;;;;;;;19.60;72.71;100409.47;10212738;28;96997;-88
2023/10/15 09:24:03;;;;;;;4.65;3.40;;;;;;;19.63;73.02;100416.41;10202702;28;99007;-92
2023/10/15 09:29:19;;;;;;;4.47;3.55;;;;;;;19.67;73.27;100420.53;10215966;28;96943;-80
2023/10/15 09:34:22;;;;;;;5.53;3.75;;;;;;;19.74;73.04;100417.31;10217597;28;98828;-81
2023/10/15 09:39:29;;;;;;;6.30;3.43;;;;;;;19.89;72.54;100413.47;10215573;28;98905;-82
2023/10/15 09:44:33;;;;;;;6.10;3.80;;;;;;;20.03;71.94;100409.78;10211860;28;97687;-82
2023/10/15 09:49:38;;;;;;;6.25;3.92;;;;;;;20.04;72.26;100412.34;10215167;28;97254;-83
2023/10/15 09:54:43;;;;;;;7.38;3.70;;;;;;;20.22;71.31;100410.91;10218894;28;96803;-88
2023/10/15 09:59:53;;;;;;;4.97;3.50;;;;;;;20.08;71.63;100419.13;10216291;28;99227;-87
2023/10/15 10:05:17;;;;;;;5.97;3.75;;;;;;;20.07;71.67;100406.75;10215525;28;97403;-87
2023/10/15 10:10:45;;;;;;;7.33;3.60;;;;;;;19.97;71.96;100420.91;10211328;28;99230;-88
2023/10/15 10:15:54;;;;;;;5.68;3.65;;;;;;;19.99;71.73;100419.84;10211292;28;96964;-84
2023/10/15 10:21:11;;;;;;;7.18;3.70;;;;;;;19.87;73.12;100418.09;10217411;28;98944;-83
2023/10/15 10:26:17;;;;;;;5.55;3.60;;;;;;;19.93;72.58;100422.09;10217049;28;96822;-84
2023/10/15 10:31:21;;;;;;;5.57;4.00;;;;;;;19.82;73.45;100417.56;10213268;28;99246;-81
2023/10/15 10:36:27;;;;;;;5.72;3.47;;;;;;;19.85;73.37;100416.50;10215637;28;96781;-78
2023/10/15 10:41:37;;;;;;;8.77;4.20;;;;;;;20.02;72.98;100424.09;10214686;28;98405;-82
2023/10/15 10:46:47;;;;;;;7.38;4.35;;;;;;;19.88;74.23;100422.47;10206474;28;98096;-83
2023/10/15 10:52:05;;;;;;;7.30;3.92;;;;;;;19.69;74.98;100422.13;10213143;28;97091;-78
2023/10/15 10:57:14;;;;;;;7.47;4.38;;;;;;;19.75;74.42;100416.31;10214201;28;96981;-78
2023/10/15 11:02:22;;;;;;;8.00;4.05;;;;;;;19.66;75.50;100413.50;10214893;28;97079;-78
2023/10/15 11:07:37;;;;;;;7.90;4.97;;;;;;;19.69;76.32;100422.13;10214495;28;96836;-78
2023/10/15 11:12:45;;;;;;;6.82;4.30;;;;;;;19.63;76.08;100411.91;10215348;28;96603;-78
2023/10/15 11:17:56;;;;;;;6.38;4.10;;;;;;;19.79;76.01;100391.09;10215039;28;96930;-78
2023/10/15 11:23:01;;;;;;;5.75;3.95;;;;;;;19.61;77.16;100392.50;10214459;28;96760;-78
2023/10/15 11:28:58;;;;;;;6.13;4.50;;;;;;;19.58;77.27;100399.88;10207048;28;97321;-78
2023/10/15 11:34:24;;;;;;;6.75;4.05;;;;;;;19.77;76.14;100386.84;10214117;28;97281;-78
2023/10/15 11:40:28;;;;;;;6.20;3.50;;;;;;;19.82;75.74;100374.84;10212768;28;97621;-78
2023/10/15 11:51:44;;;;;;;5.80;3.58;;;;;;;19.85;75.96;100363.94;10160080;28;96969;-78
2023/10/15 12:08:57;;;;;;;4.97;3.42;;;;;;;19.69;76.47;100349.19;10209288;28;96914;-78
2023/10/15 12:14:35;;;;;;;;;;;;;;;;;;;;;
2023/10/15 12:20:56;;;;;;;;;;;;;;;;;;;;;
2023/10/15 12:26:24;;;;;;;5.10;3.53;;;;;;;19.84;76.25;100324.00;10030112;28;97214;-78
2023/10/15 12:31:30;;;;;;;5.63;4.07;;;;;;;19.95;76.38;100316.88;10188520;28;96901;-78
2023/10/15 12:36:56;;;;;;;5.47;3.70;;;;;;;19.93;76.40;100312.59;10210807;28;96756;-78
2023/10/15 12:42:05;;;;;;;5.53;3.20;;;;;;;20.05;76.03;100293.81;10211833;28;97148;-78
2023/10/15 12:47:39;;;;;;;;;;;;;;;;;;;;;
2023/10/15 12:53:02;;;;;;;8.20;5.28;;;;;;;20.09;76.82;100276.56;10063201;28;97291;-78
2023/10/15 12:58:11;;;;;;;;;;;;;;;20.10;77.75;100275.59;10045807;29;97678;-78
2023/10/15 13:03:25;;;;;;;6.05;3.63;;;;;;;20.29;76.27;100266.97;10140426;28;96864;-78
2023/10/15 13:08:28;;;;;;;6.25;3.65;;;;;;;20.44;75.93;100255.09;10187929;28;97210;-78
2023/10/15 13:13:34;;;;;;;5.72;3.45;;;;;;;20.65;75.13;100258.72;10218792;28;97614;-78
2023/10/15 13:18:39;;;;;;;4.65;3.40;;;;;;;20.61;75.36;100245.72;10217605;28;96802;-78
2023/10/15 13:23:44;;;;;;;5.00;3.22;;;;;;;20.76;75.03;100241.78;10218481;28;96587;-78
2023/10/15 13:28:48;;;;;;;5.05;3.30;;;;;;;20.78;74.73;100250.53;10218461;28;97475;-78
2023/10/15 13:40:46;;;;;;;5.60;3.25;;;;;;;21.10;73.70;100243.41;10172890;28;96820;-78
2023/10/15 13:46:05;;;;;;;3.70;3.00;;;;;;;21.12;73.79;100242.28;9838932;29;98887;-78
2023/10/15 13:51:10;;;;;;;5.85;3.10;;;;;;;21.26;73.12;100239.34;10157504;28;97235;-78
2023/10/15 13:56:28;;;;;;;4.53;3.00;;;;;;;21.14;73.64;100226.97;10217750;28;97319;-78
2023/10/15 14:01:34;;;;;;;6.22;3.42;;;;;;;21.07;74.07;100227.63;10217018;28;97130;-78
2023/10/15 14:06:38;;;;;;;5.50;3.38;;;;;;;20.94;74.52;100210.88;10216626;28;96813;-78
2023/10/15 14:11:44;;;;;;;4.47;3.23;;;;;;;20.79;74.73;100201.44;10214866;28;96916;-78
2023/10/15 14:16:49;;;;;;;4.90;3.30;;;;;;;20.69;75.29;100208.53;10216197;28;96727;-78
2023/10/15 14:21:54;;;;;;;5.80;3.70;;;;;;;20.42;76.48;100189.38;10216363;28;97346;-78
2023/10/15 14:26:59;;;;;;;8.13;3.30;;;;;;;20.52;76.03;100185.81;10216540;28;97177;-78
2023/10/15 14:32:04;;;;;;;5.90;3.63;;;;;;;20.63;75.66;100174.25;10216099;28;97084;-78
2023/10/15 14:37:07;;;;;;;6.57;4.07;;;;;;;20.70;76.05;100162.06;10215395;28;97199;-78
2023/10/15 14:42:11;;;;;;;5.72;2.95;;;;;;;20.66;75.96;100157.94;10215603;28;96911;-78
2023/10/15 14:47:15;;;;;;;5.10;2.65;;;;;;;20.59;75.73;100148.72;10216459;28;96736;-78
2023/10/15 14:52:20;;;;;;;5.18;3.15;;;;;;;20.71;75.33;100145.91;10216131;28;96885;-78
2023/10/15 14:57:24;;;;;;;4.80;2.92;;;;;;;20.88;74.59;100137.31;10215074;28;97180;-78
2023/10/15 15:02:31;;;;;;;3.60;2.53;;;;;;;20.81;74.36;100135.31;10214175;28;97066;-78
2023/10/15 15:07:38;;;;;;;4.13;3.20;;;;;;;20.80;74.47;100133.59;10214543;28;96677;-78
2023/10/15 15:12:41;;;;;;;5.88;3.25;;;;;;;20.89;73.67;100128.34;10214782;28;96670;-78
2023/10/15 15:17:46;;;;;;;4.57;2.83;;;;;;;21.03;73.25;100125.34;10214331;28;96641;-78
2023/10/15 15:22:50;;;;;;;4.57;2.75;;;;;;;21.11;73.06;100130.03;10213501;28;97032;-78
2023/10/15 15:28:01;;;;;;;4.55;2.97;;;;;;;21.04;73.17;100116.31;10214115;28;96677;-78
2023/10/15 15:33:11;;;;;;;3.78;2.28;;;;;;;21.16;72.65;100123.34;10213743;28;97043;-78
2023/10/15 15:38:15;;;;;;;4.05;2.80;;;;;;;21.14;72.58;100117.25;10214407;28;96660;-78
2023/10/15 15:49:13;;;;;;;4.75;2.80;;;;;;;21.44;72.25;100121.81;10118036;28;97331;-78
2023/10/15 15:54:19;;;;;;;4.25;2.60;;;;;;;21.36;72.40;100111.78;10212172;28;96751;-78
2023/10/15 15:59:22;;;;;;;5.15;2.67;;;;;;;21.16;72.15;100103.75;10213370;28;96808;-78
2023/10/15 16:04:29;;;;;;;4.30;2.35;;;;;;;21.17;71.89;100111.66;10213049;28;96814;-78
2023/10/15 16:09:34;;;;;;;3.22;2.25;;;;;;;21.11;72.14;100116.66;10213204;28;97403;-78
2023/10/15 16:14:39;;;;;;;4.53;2.72;;;;;;;21.16;72.01;100115.31;10213050;28;96657;-78
2023/10/15 16:19:43;;;;;;;5.07;2.50;;;;;;;21.07;71.78;100126.75;10213063;28;96707;-78
2023/10/15 16:24:50;;;;;;;10.20;6.25;;;;;;;21.01;72.34;100121.94;10212282;28;97377;-78
2023/10/15 16:30:10;;;;;;;8.80;5.40;;;;;;;21.07;72.27;100137.47;10213680;28;97133;-78
2023/10/15 16:35:16;;;;;;;9.07;5.30;;;;;;;21.08;72.31;100141.84;10214354;28;97151;-78
2023/10/15 16:40:23;;;;;;;10.98;6.78;;;;;;;21.13;72.10;100138.78;10219609;28;96694;-78
2023/10/15 16:45:34;;;;;;;10.65;6.95;;;;;;;21.14;72.10;100145.81;10218511;28;97362;-78
2023/10/15 16:50:41;;;;;;;7.05;5.28;;;;;;;21.19;72.25;100149.84;10219281;28;96934;-78
2023/10/15 16:55:50;;;;;;;8.00;5.43;;;;;;;21.17;72.58;100145.63;10219133;28;97183;-78
2023/10/15 17:00:54;;;;;;;8.73;5.35;;;;;;;21.21;72.65;100142.53;10218996;28;97543;-78
2023/10/15 17:05:59;;;;;;;4.75;3.20;;;;;;;21.02;73.14;100133.47;10218630;28;96653;-79
2023/10/15 17:11:02;;;;;;;6.47;3.28;;;;;;;20.77;73.30;100132.03;10218804;28;98397;-79
2023/10/15 17:16:07;;;;;;;4.70;2.80;;;;;;;20.83;72.82;100127.97;10218589;28;96589;-78
2023/10/15 17:21:17;;;;;;;4.03;2.50;;;;;;;20.75;73.10;100120.63;10201267;28;97271;-78
2023/10/15 17:26:20;;;;;;;3.92;2.30;;;;;;;20.46;74.18;100105.28;10210783;28;96879;-78
2023/10/15 17:31:23;;;;;;;4.25;2.60;;;;;;;20.36;74.43;100107.84;10217718;28;96728;-79
2023/10/15 17:36:29;;;;;;;3.10;2.30;;;;;;;20.34;74.36;100102.63;10216553;28;96627;-78
2023/10/15 17:41:57;;;;;;;3.55;2.47;;;;;;;20.31;74.73;100104.69;10217774;28;97055;-78
2023/10/15 17:47:02;;;;;;;9.68;5.57;;;;;;;20.30;74.83;100100.34;10217237;28;96786;-78
2023/10/15 17:52:28;;;;;;;16.48;9.20;;;;;;;20.28;74.66;100113.81;10217112;28;96642;-78
2023/10/15 17:57:35;;;;;;;10.43;6.20;;;;;;;20.30;74.69;100119.06;10216754;28;97385;-79
2023/10/15 18:02:42;;;;;;;11.43;6.28;;;;;;;20.22;74.88;100116.97;10216835;28;96717;-78
2023/10/15 18:07:49;;;;;;;7.68;3.67;;;;;;;20.19;74.97;100119.91;10216739;28;96796;-78
2023/10/15 18:12:54;;;;;;;4.63;2.70;;;;;;;20.24;74.70;100138.22;10217251;28;97518;-78
2023/10/15 18:18:18;;;;;;;4.85;3.30;;;;;;;20.26;74.46;100145.16;10087906;28;97460;-79
2023/10/15 18:23:23;;;;;;;10.18;6.05;;;;;;;20.28;74.66;100145.88;10209611;28;96735;-78
2023/10/15 18:28:27;;;;;;;7.35;4.20;;;;;;;20.26;74.86;100157.66;10214991;28;96703;-78
2023/10/15 18:33:35;;;;;;;6.57;3.80;;;;;;;20.13;75.36;100162.28;10216029;28;97581;-78
2023/10/15 18:38:44;;;;;;;4.57;2.95;;;;;;;20.06;75.64;100161.94;10215202;28;96720;-78
2023/10/15 18:43:50;;;;;;;3.33;2.58;;;;;;;20.06;75.76;100164.63;10215401;28;97095;-78
2023/10/15 18:48:56;;;;;;;5.97;3.53;;;;;;;20.06;75.93;100164.63;10215359;28;97386;-78
2023/10/15 18:54:01;;;;;;;4.03;2.60;;;;;;;20.12;75.45;100169.44;10215712;28;96851;-78
2023/10/15 18:59:05;;;;;;;3.58;2.42;;;;;;;20.04;75.92;100163.03;10215047;28;96930;-78
2023/10/15 19:04:10;;;;;;;6.47;2.95;;;;;;;20.02;75.69;100163.16;10215778;28;96682;-78
2023/10/15 19:09:19;;;;;;;3.75;2.40;;;;;;;19.99;75.94;100162.53;10214722;28;96811;-78
2023/10/15 19:14:24;;;;;;;3.40;2.28;;;;;;;20.00;75.54;100164.22;10214851;28;96776;-78
2023/10/15 19:19:27;;;;;;;6.05;3.03;;;;;;;20.04;75.43;100166.56;10213742;28;97487;-78
2023/10/15 19:24:34;;;;;;;4.38;2.60;;;;;;;20.10;75.28;100167.84;10214286;28;96699;-78
2023/10/15 19:29:46;;;;;;;3.15;2.55;;;;;;;20.02;75.85;100164.97;10214171;28;98053;-78
2023/10/15 19:34:56;;;;;;;4.25;2.55;;;;;;;20.04;75.83;100166.56;10213629;28;96744;-78
2023/10/15 19:40:07;;;;;;;4.32;2.70;;;;;;;19.99;75.84;100163.41;10213686;28;97770;-78
2023/10/15 19:45:13;;;;;;;3.58;2.53;;;;;;;20.02;75.60;100162.28;10213782;28;97422;-78
2023/10/15 19:50:36;;;;;;;3.05;2.22;;;;;;;20.02;75.73;100156.94;10212958;28;96790;-78
2023/10/15 19:55:50;;;;;;;4.40;3.08;;;;;;;20.02;75.56;100163.16;10213998;28;96815;-78
2023/10/15 20:02:25;;;;;;;;;;;;;;;;;;;;;
2023/10/15 20:08:41;;;;;;;;;;;;;;;;;;;;;
2023/10/15 20:20:27;;;;;;;;;;;;;;;;;;;;;
2023/10/15 20:26:23;;;;;;;3.35;2.58;;;;;;;19.96;76.20;100168.97;10212681;28;97609;-78
2023/10/15 20:37:45;;;;;;;4.35;2.53;;;;;;;20.04;75.92;100169.22;10078729;28;98147;-79
2023/10/15 20:42:50;;;;;;;3.88;2.80;;;;;;;19.99;76.38;100170.56;10084140;28;98305;-78
2023/10/15 20:48:03;;;;;;;3.75;2.50;;;;;;;19.99;76.31;100182.09;10177988;28;96909;-79
2023/10/15 20:53:07;;;;;;;4.63;2.67;;;;;;;20.02;76.06;100186.34;10212693;28;97517;-78
2023/10/15 20:58:12;;;;;;;3.00;2.22;;;;;;;19.98;76.22;100172.38;10211887;28;97520;-78
2023/10/15 21:03:17;;;;;;;4.28;2.65;;;;;;;19.96;76.31;100165.47;10211664;28;96672;-78
2023/10/15 21:08:32;;;;;;;;;;;;;;;;;;;;;
2023/10/15 21:14:10;;;;;;;3.95;2.63;;;;;;;19.89;76.83;100174.94;10207370;28;97216;-78
2023/10/15 21:26:08;;;;;;;4.22;2.60;;;;;;;19.79;76.67;100173.94;10010942;29;98523;-79
2023/10/15 21:31:12;;;;;;;4.03;2.58;;;;;;;19.74;77.18;100170.78;10173905;28;96735;-78
2023/10/15 21:36:19;;;;;;;3.67;2.53;;;;;;;19.75;77.32;100165.31;10217253;28;96933;-78
2023/10/15 22:06:05;;;;;;;;;;;;;;;;;;;;;
2023/10/15 22:11:41;;;;;;;4.23;2.47;;;;;;;19.90;76.78;100161.44;9998638;29;97367;-79
2023/10/15 22:16:44;;;;;;;4.88;2.65;;;;;;;19.94;76.43;100152.22;10174801;28;97239;-78
2023/10/15 22:21:52;;;;;;;4.30;2.67;;;;;;;19.97;76.55;100159.13;10206000;28;96874;-78
2023/10/15 22:27:15;;;;;;;4.28;2.85;;;;;;;19.89;77.06;100158.91;10216049;28;96696;-78
2023/10/15 22:32:19;;;;;;;3.28;2.58;;;;;;;19.89;76.91;100154.41;10215593;28;96665;-78
2023/10/15 22:37:32;;;;;;;;;;;;;;;;;;;;;
2023/10/15 22:44:05;;;;;;;;;;;;;;;;;;;;;
2023/10/15 22:49:24;;;;;;;;;;;;;;;;;;;;;
2023/10/15 23:01:18;;;;;;;4.20;2.70;;;;;;;19.87;76.71;100145.69;9928112;29;96949;-78
2023/10/15 23:06:22;;;;;;;4.25;2.72;;;;;;;19.87;76.78;100144.81;10214433;28;96741;-79
2023/10/15 23:11:25;;;;;;;3.50;2.55;;;;;;;19.84;76.72;100139.72;10215037;28;97017;-78
2023/10/15 23:16:30;;;;;;;4.00;2.60;;;;;;;19.75;77.70;100138.63;10214354;28;96813;-78
2023/10/15 23:21:36;;;;;;;3.33;2.67;;;;;;;19.75;77.44;100130.59;10214247;28;96920;-78
2023/10/15 23:26:42;;;;;;;3.72;2.35;;;;;;;19.78;77.49;100126.84;10214069;28;96641;-78
2023/10/15 23:31:48;;;;;;;;;;;;;;;19.72;78.57;100122.84;10214680;28;96759;-78
2023/10/15 23:36:51;;;;;;;3.50;2.60;;;;;;;19.62;78.66;100121.88;10214489;28;97178;-78
2023/10/15 23:42:16;;;;;;;4.60;2.65;;;;;;;19.54;79.47;100113.63;10201360;28;96825;-79
2023/10/15 23:47:25;;;;;;;6.35;3.00;;;;;;;19.46;79.28;100116.03;10213383;28;96888;-78
2023/10/15 23:52:35;;;;;;;6.90;3.05;;;;;;;19.39;79.94;100103.28;10212927;28;97296;-78
2023/10/15 23:57:49;;;;;;;4.05;3.08;;;;;;;19.27;79.94;100105.06;10213276;28;96840;-78
